Time;durP1;ratioP1;P1;durP2;ratioP2;P2;SDS_P1;SDS_P2;PMS_P1;PMS_P2;Temp;Humidity;BMP_temperature;BMP_pressure;BME280_temperature;BME280_humidity;BME280_pressure;Samples;Min_cycle;Max_cycle;Signal;HPM_P1;HPM_P2
2022/03/01 00:01:11;;;;;;;16.10;9.88;;;3.80;99.90;;;;;;5130571;27;20122;-67
2022/03/01 00:03:37;;;;;;;16.13;9.98;;;3.70;99.90;;;;;;5128619;27;20096;-67
2022/03/01 00:06:02;;;;;;;16.23;10.10;;;3.70;99.90;;;;;;5130499;27;20379;-66
2022/03/01 00:08:28;;;;;;;15.63;9.55;;;3.70;99.90;;;;;;5148496;27;20050;-66
2022/03/01 00:10:53;;;;;;;14.45;9.70;;;3.70;99.90;;;;;;5149738;27;20363;-67
2022/03/01 00:13:19;;;;;;;14.63;9.80;;;3.70;99.90;;;;;;5112695;27;20042;-67
2022/03/01 00:15:45;;;;;;;16.15;10.13;;;3.60;99.90;;;;;;5130558;27;20861;-66
2022/03/01 00:18:11;;;;;;;14.80;9.65;;;3.60;99.90;;;;;;5148131;27;20348;-67
2022/03/01 00:20:36;;;;;;;15.52;10.00;;;3.60;99.90;;;;;;5147566;27;20103;-67
2022/03/01 00:23:02;;;;;;;16.67;9.73;;;3.60;99.90;;;;;;5149284;27;20046;-66
2022/03/01 00:25:28;;;;;;;16.67;10.93;;;3.60;99.90;;;;;;5135646;27;20047;-67
2022/03/01 00:27:53;;;;;;;19.17;10.50;;;3.60;99.90;;;;;;5147726;27;20505;-66
2022/03/01 00:30:19;;;;;;;15.07;9.68;;;3.50;99.90;;;;;;5149274;27;20038;-67
2022/03/01 00:32:44;;;;;;;16.73;9.95;;;3.50;99.90;;;;;;5146577;27;20121;-67
2022/03/01 00:35:10;;;;;;;18.27;9.77;;;3.50;99.90;;;;;;5130385;27;20129;-67
2022/03/01 00:37:35;;;;;;;16.40;10.15;;;3.50;99.90;;;;;;5148977;27;20061;-66
2022/03/01 00:40:02;;;;;;;15.23;10.32;;;3.50;99.90;;;;;;5148157;27;20047;-67
2022/03/01 00:42:27;;;;;;;14.75;9.98;;;3.40;99.90;;;;;;5149202;27;20062;-67
2022/03/01 00:44:53;;;;;;;14.85;9.85;;;3.40;99.90;;;;;;5148989;27;20174;-66
2022/03/01 00:47:18;;;;;;;16.13;9.93;;;4.00;99.90;;;;;;5150917;27;20453;-66
2022/03/01 00:49:44;;;;;;;16.05;9.93;;;3.30;99.90;;;;;;5152209;27;20072;-66
2022/03/01 00:52:09;;;;;;;15.52;9.77;;;3.30;99.90;;;;;;5133918;27;20566;-66
2022/03/01 00:54:35;;;;;;;15.98;9.65;;;3.30;99.90;;;;;;5132969;27;20046;-66
2022/03/01 00:57:01;;;;;;;16.80;9.93;;;3.30;99.90;;;;;;5130315;27;20051;-67
2022/03/01 00:59:26;;;;;;;14.93;9.52;;;4.00;99.90;;;;;;5132542;27;20088;-67
2022/03/01 01:01:52;;;;;;;14.13;9.13;;;3.30;99.90;;;;;;5131117;27;20039;-67
2022/03/01 01:04:17;;;;;;;17.98;9.80;;;3.40;99.90;;;;;;5131975;27;20035;-67
2022/03/01 01:06:43;;;;;;;16.75;10.25;;;3.40;99.90;;;;;;5147162;27;20050;-67
2022/03/01 01:09:12;;;;;;;15.88;9.70;;;3.30;99.90;;;;;;5130038;27;20154;-67
2022/03/01 01:11:38;;;;;;;14.95;9.48;;;3.30;99.90;;;;;;5131177;27;20047;-67
2022/03/01 01:14:04;;;;;;;15.82;9.63;;;3.30;99.90;;;;;;5131533;27;20034;-67
2022/03/01 01:16:30;;;;;;;15.77;9.50;;;3.30;99.90;;;;;;5130210;27;20047;-67
2022/03/01 01:18:55;;;;;;;18.73;9.30;;;3.30;99.90;;;;;;5129890;27;20043;-67
2022/03/01 01:21:21;;;;;;;16.00;9.48;;;3.30;99.90;;;;;;5131596;27;20039;-67
2022/03/01 01:23:47;;;;;;;14.80;9.27;;;3.20;99.90;;;;;;5130095;27;20042;-67
2022/03/01 01:26:15;;;;;;;13.93;8.77;;;3.20;99.90;;;;;;5146211;27;20039;-67
2022/03/01 01:28:41;;;;;;;14.70;9.45;;;3.20;99.90;;;;;;5130679;27;20472;-67
2022/03/01 01:31:06;;;;;;;15.10;9.88;;;3.20;99.90;;;;;;5131025;27;20138;-67
2022/03/01 01:33:32;;;;;;;14.07;9.25;;;3.30;99.90;;;;;;5128117;27;20103;-67
2022/03/01 01:35:58;;;;;;;15.18;9.05;;;3.20;99.90;;;;;;5130666;27;20040;-67
2022/03/01 01:38:24;;;;;;;14.73;9.68;;;3.30;99.90;;;;;;5131806;27;20047;-67
2022/03/01 01:40:49;;;;;;;14.57;9.57;;;3.20;99.90;;;;;;5130861;27;20031;-67
2022/03/01 01:43:15;;;;;;;15.45;9.35;;;3.20;99.90;;;;;;5129248;27;20058;-67
2022/03/01 01:45:40;;;;;;;14.63;9.70;;;3.20;99.90;;;;;;5112637;27;20039;-67
2022/03/01 01:48:06;;;;;;;14.48;9.68;;;3.20;99.90;;;;;;5146133;27;20043;-67
2022/03/01 01:50:33;;;;;;;14.05;8.90;;;3.20;99.90;;;;;;5129545;27;20692;-67
2022/03/01 01:52:59;;;;;;;17.23;10.05;;;3.60;99.90;;;;;;5130666;27;20142;-67
2022/03/01 01:55:27;;;;;;;15.82;9.82;;;3.20;99.90;;;;;;5130775;27;20187;-67
2022/03/01 01:57:52;;;;;;;15.95;9.60;;;3.20;99.90;;;;;;5110776;27;20111;-67
2022/03/01 02:00:18;;;;;;;13.40;9.02;;;3.20;99.90;;;;;;5143711;27;20043;-67
2022/03/01 02:02:45;;;;;;;15.25;9.18;;;3.20;99.90;;;;;;5148083;27;20487;-68
2022/03/01 02:05:11;;;;;;;15.57;9.23;;;3.20;99.90;;;;;;5150473;27;20125;-67
2022/03/01 02:07:37;;;;;;;16.20;9.35;;;3.30;99.90;;;;;;5150557;27;20403;-68
2022/03/01 02:10:04;;;;;;;17.20;9.23;;;3.30;99.90;;;;;;5151258;27;20038;-67
2022/03/01 02:12:30;;;;;;;13.88;9.23;;;3.30;99.90;;;;;;5150482;27;20049;-67
2022/03/01 02:14:55;;;;;;;13.07;8.82;;;3.30;99.90;;;;;;5151964;27;20043;-67
2022/03/01 02:17:23;;;;;;;14.05;8.70;;;3.30;99.90;;;;;;5152409;27;20459;-67
2022/03/01 02:19:50;;;;;;;15.55;9.75;;;3.40;99.90;;;;;;5152135;27;20051;-67
2022/03/01 02:22:16;;;;;;;13.65;8.68;;;3.40;99.90;;;;;;5134994;27;20050;-67
2022/03/01 02:24:42;;;;;;;14.15;8.88;;;3.50;99.90;;;;;;5150742;27;20054;-67
2022/03/01 02:27:08;;;;;;;15.10;9.07;;;3.50;99.90;;;;;;5149765;27;20041;-67
2022/03/01 02:29:34;;;;;;;15.50;9.10;;;3.50;99.90;;;;;;5150920;27;20049;-67
2022/03/01 02:32:06;;;;;;;17.05;9.43;;;3.50;99.90;;;;;;5131153;27;20051;-66
2022/03/01 02:34:32;;;;;;;14.52;9.20;;;3.50;99.90;;;;;;5131951;27;20050;-67
2022/03/01 02:36:58;;;;;;;14.82;9.10;;;3.40;99.90;;;;;;5150255;27;20043;-67
2022/03/01 02:39:23;;;;;;;14.30;8.70;;;3.40;99.90;;;;;;5150343;27;20085;-67
2022/03/01 02:41:49;;;;;;;16.20;9.70;;;3.40;99.90;;;;;;5149860;27;20081;-67
2022/03/01 02:44:15;;;;;;;13.60;8.43;;;3.40;99.90;;;;;;5151030;27;20057;-67
2022/03/01 02:46:41;;;;;;;12.65;8.63;;;3.50;99.90;;;;;;5112863;27;20046;-67
2022/03/01 02:49:09;;;;;;;14.40;9.40;;;3.50;99.90;;;;;;5149564;27;20079;-67
2022/03/01 02:51:35;;;;;;;14.02;9.13;;;3.60;99.90;;;;;;5131907;27;20042;-67
2022/03/01 02:54:03;;;;;;;13.88;9.13;;;3.50;99.90;;;;;;5149915;27;20073;-67
2022/03/01 02:56:28;;;;;;;12.98;8.70;;;3.40;99.90;;;;;;5149476;27;20494;-67
2022/03/01 02:58:55;;;;;;;15.75;9.73;;;3.30;99.90;;;;;;5132024;27;20049;-66
2022/03/01 03:01:24;;;;;;;16.17;9.38;;;3.30;99.90;;;;;;5149408;27;20531;-66
2022/03/01 03:03:49;;;;;;;15.02;9.68;;;3.30;99.90;;;;;;5129771;27;20070;-67
2022/03/01 03:06:16;;;;;;;13.18;8.85;;;3.30;99.90;;;;;;5149463;27;20559;-66
2022/03/01 03:08:42;;;;;;;15.88;9.50;;;4.30;99.90;;;;;;5113507;27;20082;-66
2022/03/01 03:11:08;;;;;;;15.32;9.82;;;3.20;99.90;;;;;;5152325;27;20121;-66
2022/03/01 03:13:34;;;;;;;13.73;9.57;;;3.20;99.90;;;;;;5146548;27;20038;-67
2022/03/01 03:15:59;;;;;;;13.57;9.30;;;3.10;99.90;;;;;;5140817;27;20110;-66
2022/03/01 03:18:25;;;;;;;16.45;10.75;;;3.10;99.90;;;;;;5149960;27;20487;-67
2022/03/01 03:20:51;;;;;;;16.90;10.00;;;3.00;99.90;;;;;;5149657;27;20042;-66
2022/03/01 03:23:16;;;;;;;14.70;9.38;;;3.10;99.90;;;;;;5130890;27;20034;-67
2022/03/01 03:25:42;;;;;;;14.48;9.63;;;2.70;99.90;;;;;;5142324;27;20478;-67
2022/03/01 03:28:07;;;;;;;15.43;9.60;;;3.00;99.90;;;;;;5150117;27;20402;-66
2022/03/01 03:30:33;;;;;;;16.63;9.80;;;3.80;99.90;;;;;;5147132;27;20069;-66
2022/03/01 03:32:59;;;;;;;14.93;9.73;;;3.10;99.90;;;;;;5149013;27;20043;-66
2022/03/01 03:35:24;;;;;;;14.65;10.15;;;3.00;99.90;;;;;;5148797;27;20037;-67
2022/03/01 03:37:50;;;;;;;15.15;10.30;;;3.10;99.90;;;;;;5149122;27;20065;-67
2022/03/01 03:40:16;;;;;;;15.95;9.43;;;3.00;99.90;;;;;;5149920;27;20046;-67
2022/03/01 03:42:44;;;;;;;13.57;9.15;;;2.90;99.90;;;;;;5146770;27;20364;-66
2022/03/01 03:45:11;;;;;;;16.88;9.70;;;3.10;99.90;;;;;;5149555;27;20035;-67
2022/03/01 03:47:36;;;;;;;16.58;10.32;;;4.10;99.90;;;;;;5129246;27;20046;-67
2022/03/01 03:50:03;;;;;;;17.55;10.27;;;3.00;99.90;;;;;;5133136;27;20039;-66
2022/03/01 03:52:29;;;;;;;15.43;9.55;;;3.10;99.90;;;;;;5148977;27;20043;-67
2022/03/01 03:54:54;;;;;;;16.73;9.77;;;3.10;99.90;;;;;;5130701;27;20035;-67
2022/03/01 03:57:20;;;;;;;18.23;10.27;;;3.10;99.90;;;;;;5147359;27;20115;-66
2022/03/01 03:59:46;;;;;;;16.40;10.30;;;3.20;99.90;;;;;;5130560;27;20491;-66
2022/03/01 04:02:11;;;;;;;15.70;10.15;;;3.30;99.90;;;;;;5148175;27;20031;-67
2022/03/01 04:04:37;;;;;;;14.75;9.45;;;3.70;99.90;;;;;;5148645;27;20046;-66
2022/03/01 04:07:03;;;;;;;18.15;10.65;;;3.20;99.90;;;;;;5129921;27;20401;-67
2022/03/01 04:09:29;;;;;;;16.92;9.65;;;3.20;99.90;;;;;;5130811;27;20121;-67
2022/03/01 04:11:55;;;;;;;15.70;10.15;;;3.10;99.90;;;;;;5130045;27;20456;-66
2022/03/01 04:14:21;;;;;;;17.15;10.10;;;3.60;99.90;;;;;;5122538;28;20039;-66
2022/03/01 04:16:47;;;;;;;16.05;9.85;;;3.10;99.90;;;;;;5143581;27;20087;-67
2022/03/01 04:19:13;;;;;;;16.95;10.18;;;3.10;99.90;;;;;;5129395;27;20089;-66
2022/03/01 04:21:39;;;;;;;19.52;9.98;;;3.10;99.90;;;;;;5151796;27;20046;-66
2022/03/01 04:24:06;;;;;;;17.15;10.52;;;3.10;99.90;;;;;;5153980;27;20045;-66
2022/03/01 04:26:32;;;;;;;15.90;10.20;;;3.20;99.90;;;;;;5152041;27;20078;-67
2022/03/01 04:28:58;;;;;;;17.58;9.52;;;3.10;99.90;;;;;;5153684;27;20065;-66
2022/03/01 04:31:23;;;;;;;17.42;10.00;;;3.00;99.90;;;;;;5134554;27;20475;-66
2022/03/01 04:33:49;;;;;;;15.90;9.88;;;3.10;99.90;;;;;;5131833;27;20650;-67
2022/03/01 04:36:16;;;;;;;17.08;9.90;;;3.10;99.90;;;;;;5153595;27;20031;-66
2022/03/01 04:38:42;;;;;;;16.13;10.15;;;3.10;99.90;;;;;;5151791;27;20046;-67
2022/03/01 04:41:09;;;;;;;17.45;10.63;;;3.10;99.90;;;;;;5153158;27;20035;-66
2022/03/01 04:43:35;;;;;;;19.25;9.80;;;3.10;99.90;;;;;;5132929;27;20123;-68
2022/03/01 04:46:01;;;;;;;18.67;10.98;;;3.10;99.90;;;;;;5152569;27;20242;-68
2022/03/01 04:48:27;;;;;;;17.83;10.48;;;3.10;99.90;;;;;;5150870;27;20534;-68
2022/03/01 04:50:53;;;;;;;16.63;10.52;;;3.10;99.90;;;;;;5152823;27;20043;-68
2022/03/01 04:53:18;;;;;;;16.85;9.85;;;3.10;99.90;;;;;;5152679;27;20133;-68
2022/03/01 04:55:44;;;;;;;17.30;10.18;;;3.10;99.90;;;;;;5150089;27;20398;-65
2022/03/01 04:58:11;;;;;;;15.60;9.60;;;3.10;99.90;;;;;;5134201;27;20042;-65
2022/03/01 05:00:36;;;;;;;17.40;10.18;;;3.20;99.90;;;;;;5151372;27;20042;-68
2022/03/01 05:03:02;;;;;;;17.13;10.23;;;3.20;99.90;;;;;;5151475;27;20506;-66
2022/03/01 05:05:28;;;;;;;16.20;10.20;;;3.30;99.90;;;;;;5129261;27;20109;-66
2022/03/01 05:07:54;;;;;;;17.38;10.45;;;3.30;99.90;;;;;;5136128;27;20510;-66
2022/03/01 05:10:21;;;;;;;16.65;10.40;;;3.20;99.90;;;;;;5134381;27;20042;-66
2022/03/01 05:12:55;;;;;;;20.48;11.07;;;3.30;99.90;;;;;;5132485;27;20043;-67
2022/03/01 05:15:23;;;;;;;19.30;11.52;;;3.30;99.90;;;;;;5152086;27;20047;-67
2022/03/01 05:17:49;;;;;;;18.00;11.65;;;3.30;99.90;;;;;;5150845;27;20051;-66
2022/03/01 05:20:17;;;;;;;15.90;10.20;;;3.30;99.90;;;;;;5153280;27;20045;-67
2022/03/01 05:22:43;;;;;;;20.02;10.23;;;3.30;99.90;;;;;;5132179;27;20536;-67
2022/03/01 05:25:11;;;;;;;19.30;11.40;;;3.30;99.90;;;;;;5152060;27;20039;-67
2022/03/01 05:27:38;;;;;;;17.27;10.35;;;3.30;99.90;;;;;;5151506;27;20047;-67
2022/03/01 05:30:06;;;;;;;16.58;10.75;;;3.30;99.90;;;;;;5142267;27;20030;-67
2022/03/01 05:32:36;;;;;;;17.30;10.82;;;3.40;99.90;;;;;;5150839;27;20121;-67
2022/03/01 05:35:03;;;;;;;16.90;10.57;;;3.40;99.90;;;;;;5151087;27;20410;-66
2022/03/01 05:37:29;;;;;;;17.70;10.32;;;3.40;99.90;;;;;;5150765;27;20039;-67
2022/03/01 05:39:54;;;;;;;17.77;10.15;;;3.40;99.90;;;;;;5153485;27;20039;-66
2022/03/01 05:42:23;;;;;;;19.42;10.18;;;3.50;99.90;;;;;;5134669;27;20065;-66
2022/03/01 05:44:50;;;;;;;20.48;10.85;;;3.50;99.90;;;;;;5116186;27;20053;-67
2022/03/01 05:47:15;;;;;;;19.85;11.30;;;3.40;99.90;;;;;;5132083;27;20388;-67
2022/03/01 05:49:42;;;;;;;24.52;11.65;;;3.50;99.90;;;;;;5149701;27;20051;-67
2022/03/01 05:52:07;;;;;;;21.88;10.90;;;3.50;99.90;;;;;;5129278;27;20491;-67
2022/03/01 05:54:33;;;;;;;19.95;10.60;;;3.40;99.90;;;;;;5151573;27;20090;-67
2022/03/01 05:56:59;;;;;;;22.50;10.73;;;3.40;99.90;;;;;;5149822;27;20367;-67
2022/03/01 05:59:24;;;;;;;19.95;10.82;;;3.40;99.90;;;;;;5151610;27;20138;-67
2022/03/01 06:01:51;;;;;;;25.42;10.82;;;3.40;99.90;;;;;;5129759;27;20078;-67
2022/03/01 06:04:17;;;;;;;20.67;12.07;;;3.40;99.90;;;;;;5149891;27;20053;-67
2022/03/01 06:06:42;;;;;;;26.35;12.38;;;3.40;99.90;;;;;;5150645;27;20487;-67
2022/03/01 06:09:08;;;;;;;21.90;11.73;;;3.50;99.90;;;;;;5150648;27;20030;-67
2022/03/01 06:11:33;;;;;;;24.13;11.90;;;3.40;99.90;;;;;;5150058;27;20046;-67
2022/03/01 06:13:59;;;;;;;19.88;11.27;;;3.40;99.90;;;;;;5150804;27;20042;-67
2022/03/01 06:16:25;;;;;;;18.52;11.82;;;3.50;99.90;;;;;;5151206;27;20505;-67
2022/03/01 06:18:50;;;;;;;20.42;11.45;;;3.50;99.90;;;;;;5147622;27;20039;-67
2022/03/01 06:21:16;;;;;;;21.80;11.93;;;3.50;99.90;;;;;;5150722;27;20098;-67
2022/03/01 06:23:42;;;;;;;23.25;11.20;;;3.60;99.90;;;;;;5150639;27;20130;-67
2022/03/01 06:26:08;;;;;;;23.25;11.60;;;3.50;99.90;;;;;;5145810;27;20038;-67
2022/03/01 06:28:34;;;;;;;22.40;11.73;;;3.50;99.90;;;;;;5141412;27;20378;-66
2022/03/01 06:31:00;;;;;;;20.45;11.73;;;3.50;99.90;;;;;;5143081;27;20133;-66
2022/03/01 06:33:25;;;;;;;22.73;11.70;;;3.50;99.90;;;;;;5125729;27;20134;-66
2022/03/01 06:35:51;;;;;;;22.20;11.77;;;3.60;99.90;;;;;;5146943;27;20098;-67
2022/03/01 06:38:17;;;;;;;19.13;11.48;;;3.60;99.90;;;;;;5130333;27;20074;-67
2022/03/01 06:40:42;;;;;;;24.98;11.65;;;3.60;99.90;;;;;;5130774;27;20050;-67
2022/03/01 06:43:08;;;;;;;27.70;11.98;;;3.70;99.90;;;;;;5131212;27;20129;-67
2022/03/01 06:45:34;;;;;;;30.23;12.65;;;3.70;99.90;;;;;;5148331;27;20333;-68
2022/03/01 06:47:59;;;;;;;19.35;11.40;;;4.80;99.90;;;;;;5131722;27;20047;-68
2022/03/01 06:50:26;;;;;;;20.75;11.10;;;3.70;99.90;;;;;;5133452;27;20053;-67
2022/03/01 06:52:52;;;;;;;23.08;11.30;;;3.80;99.90;;;;;;5132959;27;20053;-67
2022/03/01 06:55:19;;;;;;;20.25;11.93;;;3.80;99.90;;;;;;5132471;27;20051;-67
2022/03/01 06:57:45;;;;;;;17.65;10.57;;;3.80;99.90;;;;;;5149157;27;20050;-68
2022/03/01 07:00:12;;;;;;;20.40;11.00;;;3.70;99.90;;;;;;5113640;27;20045;-67
2022/03/01 07:02:38;;;;;;;18.95;10.75;;;3.90;99.90;;;;;;5128984;27;20091;-68
2022/03/01 07:05:09;;;;;;;22.38;11.95;;;3.90;99.90;;;;;;5149512;27;20038;-67
2022/03/01 07:07:35;;;;;;;20.98;11.60;;;4.70;99.90;;;;;;5148329;27;20148;-68
2022/03/01 07:10:02;;;;;;;25.17;12.18;;;3.90;99.90;;;;;;5150104;27;20053;-68
2022/03/01 07:12:27;;;;;;;21.38;11.27;;;4.00;99.90;;;;;;5148482;27;20049;-67
2022/03/01 07:14:53;;;;;;;20.23;11.98;;;4.00;99.90;;;;;;5147472;27;20126;-67
2022/03/01 07:17:20;;;;;;;21.77;12.90;;;4.90;99.90;;;;;;5129916;27;20476;-67
2022/03/01 07:19:47;;;;;;;24.17;11.75;;;4.10;99.90;;;;;;5111390;27;20039;-68
2022/03/01 07:22:13;;;;;;;21.63;12.10;;;4.20;99.90;;;;;;5092868;27;20202;-68
2022/03/01 07:24:38;;;;;;;20.20;11.98;;;4.30;99.90;;;;;;5109876;27;20575;-68
2022/03/01 07:27:04;;;;;;;20.60;11.65;;;4.30;99.90;;;;;;5116575;27;20031;-68
2022/03/01 07:29:30;;;;;;;22.63;12.32;;;4.40;99.90;;;;;;5147540;27;20530;-68
2022/03/01 07:31:57;;;;;;;23.08;11.10;;;4.40;99.90;;;;;;5129631;27;20198;-68
2022/03/01 07:34:23;;;;;;;18.63;10.65;;;4.40;99.90;;;;;;5129538;27;20039;-68
2022/03/01 07:36:49;;;;;;;18.05;10.98;;;4.40;99.90;;;;;;5149171;27;20130;-68
2022/03/01 07:39:15;;;;;;;20.17;11.15;;;4.50;99.90;;;;;;5145504;27;20107;-68
2022/03/01 07:41:40;;;;;;;20.33;11.15;;;4.50;99.90;;;;;;5127809;28;20066;-69
2022/03/01 07:44:06;;;;;;;25.63;11.48;;;4.50;99.90;;;;;;5119430;27;20313;-68
2022/03/01 07:46:32;;;;;;;20.58;11.38;;;4.60;99.90;;;;;;5125410;27;20045;-68
2022/03/01 07:48:57;;;;;;;18.75;11.15;;;4.60;99.90;;;;;;5114009;27;20034;-67
2022/03/01 07:51:23;;;;;;;19.38;10.73;;;4.70;99.90;;;;;;5149432;27;20134;-68
2022/03/01 07:53:52;;;;;;;21.45;11.73;;;4.70;99.90;;;;;;5149844;27;20042;-68
2022/03/01 07:56:20;;;;;;;20.15;11.43;;;4.70;99.90;;;;;;5125080;27;20367;-68
2022/03/01 07:58:46;;;;;;;17.67;11.73;;;4.80;99.90;;;;;;5139945;27;20142;-68
2022/03/01 08:01:12;;;;;;;19.65;11.32;;;5.30;99.90;;;;;;5146529;27;20110;-68
2022/03/01 08:03:38;;;;;;;21.38;11.60;;;4.90;99.90;;;;;;5145379;27;20943;-66
2022/03/01 08:06:03;;;;;;;18.83;11.85;;;4.90;99.90;;;;;;5132380;27;20570;-66
2022/03/01 08:08:29;;;;;;;20.30;11.52;;;5.00;99.90;;;;;;5131499;27;20411;-66
2022/03/01 08:10:55;;;;;;;19.85;11.38;;;5.00;99.90;;;;;;5113790;27;20039;-67
2022/03/01 08:13:20;;;;;;;21.95;11.80;;;5.10;99.90;;;;;;5132159;27;20039;-65
2022/03/01 08:15:46;;;;;;;18.55;11.20;;;5.10;99.90;;;;;;5140923;27;20043;-65
2022/03/01 08:18:11;;;;;;;22.05;11.27;;;5.10;99.90;;;;;;5130794;27;20106;-65
2022/03/01 08:20:37;;;;;;;19.02;11.68;;;5.20;99.90;;;;;;5127234;27;20042;-66
2022/03/01 08:23:03;;;;;;;18.25;10.63;;;5.20;99.90;;;;;;5135154;27;20050;-65
2022/03/01 08:25:29;;;;;;;17.30;11.25;;;6.30;99.90;;;;;;5150594;27;20427;-65
2022/03/01 08:27:56;;;;;;;21.65;11.65;;;5.20;99.90;;;;;;5152511;27;20053;-65
2022/03/01 08:30:23;;;;;;;20.52;11.57;;;5.20;99.90;;;;;;5153262;27;20525;-65
2022/03/01 08:32:49;;;;;;;22.05;12.13;;;5.20;99.90;;;;;;5136164;27;20471;-65
2022/03/01 08:35:15;;;;;;;22.05;11.70;;;5.30;99.90;;;;;;5152787;27;20350;-65
2022/03/01 08:37:41;;;;;;;20.05;11.73;;;5.40;99.90;;;;;;5152000;27;20039;-65
2022/03/01 08:40:08;;;;;;;20.63;10.95;;;5.50;99.90;;;;;;5153233;27;20069;-65
2022/03/01 08:42:34;;;;;;;19.30;11.30;;;5.50;99.90;;;;;;5133721;27;20035;-66
2022/03/01 08:44:59;;;;;;;19.23;11.73;;;5.70;99.90;;;;;;5152087;27;20471;-65
2022/03/01 08:47:26;;;;;;;16.63;10.82;;;5.90;99.90;;;;;;5151092;27;20088;-66
2022/03/01 08:49:52;;;;;;;17.17;11.27;;;6.10;99.90;;;;;;5140276;27;20046;-65
2022/03/01 08:52:19;;;;;;;19.83;11.63;;;6.30;99.90;;;;;;5127363;27;20046;-65
2022/03/01 08:54:44;;;;;;;21.38;11.40;;;6.40;99.90;;;;;;5149949;27;20041;-65
2022/03/01 08:57:11;;;;;;;20.77;11.75;;;6.60;99.90;;;;;;5128257;27;20046;-66
2022/03/01 08:59:37;;;;;;;20.13;11.57;;;6.00;99.90;;;;;;5151488;27;20130;-66
2022/03/01 09:02:03;;;;;;;20.63;11.65;;;6.90;99.90;;;;;;5132297;27;20117;-65
2022/03/01 09:04:29;;;;;;;18.65;11.60;;;7.00;99.90;;;;;;5132135;27;20043;-64
2022/03/01 09:06:54;;;;;;;19.33;11.45;;;7.20;99.90;;;;;;5151873;27;20035;-65
2022/03/01 09:09:20;;;;;;;17.88;11.45;;;7.50;99.90;;;;;;5151399;27;20178;-64
2022/03/01 09:11:46;;;;;;;19.08;11.57;;;8.00;99.90;;;;;;5150748;27;20128;-64
2022/03/01 09:14:12;;;;;;;21.92;11.70;;;8.50;99.80;;;;;;5133083;27;20023;-64
2022/03/01 09:16:38;;;;;;;17.60;10.80;;;8.70;99.20;;;;;;5150514;27;20288;-64
2022/03/01 09:19:10;;;;;;;18.98;11.50;;;8.80;98.20;;;;;;5150012;27;20050;-65
2022/03/01 09:21:36;;;;;;;17.33;11.05;;;8.90;97.90;;;;;;5150905;27;20049;-65
2022/03/01 09:24:01;;;;;;;18.42;11.18;;;9.40;97.80;;;;;;5115304;27;20038;-65
2022/03/01 09:26:27;;;;;;;18.92;11.15;;;10.00;97.00;;;;;;5133656;27;20049;-66
2022/03/01 09:28:52;;;;;;;18.50;11.38;;;11.00;96.90;;;;;;5130278;27;20476;-65
2022/03/01 09:31:18;;;;;;;23.10;11.98;;;10.50;95.80;;;;;;5111806;27;20039;-65
2022/03/01 09:33:44;;;;;;;24.27;11.90;;;10.40;95.30;;;;;;5128417;27;20094;-65
2022/03/01 09:36:14;;;;;;;19.60;11.82;;;10.10;95.60;;;;;;5113037;27;20559;-65
2022/03/01 09:38:41;;;;;;;22.48;12.45;;;9.70;95.80;;;;;;5132330;27;20082;-65
2022/03/01 09:41:08;;;;;;;20.55;12.10;;;9.50;96.10;;;;;;5130591;27;20114;-65
2022/03/01 09:43:37;;;;;;;21.33;12.15;;;9.30;96.40;;;;;;5130337;27;20047;-65
2022/03/01 09:46:07;;;;;;;17.73;11.75;;;9.20;96.20;;;;;;5111417;27;20044;-65
2022/03/01 09:48:33;;;;;;;20.55;11.48;;;9.00;96.40;;;;;;5108646;27;20095;-65
2022/03/01 09:51:00;;;;;;;18.08;11.82;;;8.70;96.80;;;;;;5112113;27;20104;-65
2022/03/01 09:53:27;;;;;;;17.73;12.00;;;8.50;96.70;;;;;;5129734;27;20430;-67
2022/03/01 09:55:54;;;;;;;20.45;11.65;;;8.30;96.90;;;;;;5111788;27;20470;-65
2022/03/01 09:58:20;;;;;;;17.88;11.82;;;8.20;97.20;;;;;;5147896;27;20416;-66
2022/03/01 10:00:47;;;;;;;26.73;12.52;;;8.10;97.60;;;;;;5131007;27;20079;-65
2022/03/01 10:03:17;;;;;;;17.48;11.23;;;8.20;97.70;;;;;;5148859;27;20042;-66
2022/03/01 10:05:43;;;;;;;21.00;12.55;;;8.60;97.40;;;;;;5127665;27;20447;-68
2022/03/01 10:08:20;;;;;;;18.60;11.63;;;9.30;97.30;;;;;;5146344;27;20046;-68
2022/03/01 10:10:52;;;;;;;19.80;11.68;;;10.10;96.00;;;;;;5128940;27;20043;-68
2022/03/01 10:13:23;;;;;;;18.55;11.93;;;10.90;94.90;;;;;;5147782;27;20038;-68
2022/03/01 10:16:05;;;;;;;19.13;12.27;;;11.40;94.10;;;;;;5125432;27;20039;-68
2022/03/01 10:18:39;;;;;;;19.50;11.98;;;12.50;92.30;;;;;;5104842;27;20039;-68
2022/03/01 10:21:09;;;;;;;19.88;11.63;;;13.50;90.80;;;;;;5139612;27;20070;-67
2022/03/01 10:23:37;;;;;;;17.55;12.20;;;14.70;84.90;;;;;;5145972;27;20137;-68
2022/03/01 10:26:14;;;;;;;21.70;12.10;;;16.20;79.50;;;;;;5147225;27;20039;-69
2022/03/01 10:28:40;;;;;;;17.63;12.07;;;17.80;71.00;;;;;;5110834;27;20046;-67
2022/03/01 10:31:09;;;;;;;17.08;11.80;;;18.20;64.30;;;;;;5141751;27;20138;-66
2022/03/01 10:33:35;;;;;;;19.15;11.80;;;18.50;61.90;;;;;;5124594;27;20043;-66
2022/03/01 10:36:01;;;;;;;15.00;11.35;;;18.60;60.70;;;;;;5125468;27;20058;-67
2022/03/01 10:38:27;;;;;;;20.65;12.00;;;19.10;58.90;;;;;;5109861;27;20051;-66
2022/03/01 10:41:00;;;;;;;23.40;12.55;;;18.60;57.20;;;;;;5125804;27;20518;-67
2022/03/01 10:43:28;;;;;;;17.83;11.90;;;17.60;57.80;;;;;;5132872;27;20783;-68
2022/03/01 10:45:54;;;;;;;21.80;11.82;;;16.20;59.00;;;;;;5150563;27;20045;-66
2022/03/01 10:48:38;;;;;;;18.10;12.50;;;15.20;60.50;;;;;;5148692;27;20091;-65
2022/03/01 10:51:08;;;;;;;17.17;12.02;;;14.40;62.90;;;;;;5149593;27;20043;-65
2022/03/01 10:53:40;;;;;;;19.10;12.30;;;13.80;64.10;;;;;;5148351;27;20039;-66
2022/03/01 10:56:12;;;;;;;17.98;12.80;;;13.10;66.20;;;;;;5131656;27;20055;-65
2022/03/01 10:58:39;;;;;;;18.40;12.23;;;12.60;67.90;;;;;;5148804;27;20157;-66
2022/03/01 11:01:06;;;;;;;19.95;13.00;;;13.20;70.40;;;;;;5131654;27;20046;-66
2022/03/01 11:03:31;;;;;;;19.10;11.20;;;11.70;71.10;;;;;;5147098;27;20050;-67
2022/03/01 11:05:58;;;;;;;22.40;12.45;;;11.40;72.50;;;;;;5149502;27;20041;-66
2022/03/01 11:08:41;;;;;;;16.77;11.40;;;11.40;73.70;;;;;;5114033;27;20151;-66
2022/03/01 11:11:09;;;;;;;16.83;11.63;;;10.80;74.80;;;;;;5130786;27;20419;-66
2022/03/01 11:13:40;;;;;;;21.23;12.88;;;10.40;76.20;;;;;;5149214;27;20042;-67
2022/03/01 11:16:31;;;;;;;17.27;12.65;;;10.20;77.50;;;;;;5115831;27;20072;-66
2022/03/01 11:19:14;;;;;;;19.50;12.73;;;10.00;79.70;;;;;;5146979;27;20051;-66
2022/03/01 11:21:47;;;;;;;20.83;12.35;;;10.80;82.20;;;;;;5125308;27;20047;-65
2022/03/01 11:24:16;;;;;;;19.48;11.93;;;9.80;82.90;;;;;;5128446;27;20107;-65
2022/03/01 11:26:42;;;;;;;19.13;12.35;;;9.70;84.60;;;;;;5107031;27;20070;-66
2022/03/01 11:29:16;;;;;;;20.85;12.98;;;9.70;85.20;;;;;;5145258;27;20183;-66
2022/03/01 11:31:56;;;;;;;18.27;12.73;;;9.70;85.40;;;;;;5145078;27;20129;-66
2022/03/01 11:34:25;;;;;;;20.58;13.18;;;9.70;86.30;;;;;;5094484;27;20503;-67
2022/03/01 11:36:55;;;;;;;19.42;12.63;;;9.70;87.20;;;;;;5110090;27;20538;-66
2022/03/01 11:39:50;;;;;;;19.15;12.55;;;9.80;87.50;;;;;;5130923;27;20182;-67
2022/03/01 11:42:20;;;;;;;17.92;12.13;;;9.80;87.90;;;;;;5127048;27;20099;-67
2022/03/01 11:44:53;;;;;;;17.23;12.18;;;10.00;88.00;;;;;;5126863;27;20065;-67
2022/03/01 11:47:27;;;;;;;18.85;11.93;;;10.20;87.80;;;;;;5143959;27;20111;-67
2022/03/01 11:49:53;;;;;;;22.63;12.82;;;10.20;87.40;;;;;;5129480;27;20042;-66
2022/03/01 11:52:26;;;;;;;21.30;12.60;;;10.30;86.70;;;;;;5130540;27;20539;-65
2022/03/01 11:54:55;;;;;;;19.27;12.00;;;10.20;87.00;;;;;;5149028;27;20428;-66
2022/03/01 11:57:29;;;;;;;18.50;12.50;;;10.00;87.30;;;;;;5138235;27;20457;-66
2022/03/01 11:59:58;;;;;;;19.15;12.32;;;9.90;88.00;;;;;;5147819;27;20051;-65
2022/03/01 12:02:26;;;;;;;19.05;13.02;;;9.60;89.00;;;;;;5146599;27;20038;-67
2022/03/01 12:04:57;;;;;;;18.98;12.68;;;9.50;89.50;;;;;;5148705;27;20047;-66
2022/03/01 12:07:26;;;;;;;21.52;13.18;;;9.40;90.20;;;;;;5147684;27;20093;-66
2022/03/01 12:10:03;;;;;;;23.40;12.93;;;9.30;90.60;;;;;;5148473;27;20416;-65
2022/03/01 12:12:44;;;;;;;22.55;12.80;;;9.30;90.90;;;;;;5125849;28;20433;-66
2022/03/01 12:15:12;;;;;;;18.52;12.55;;;9.30;91.00;;;;;;5126175;27;20241;-66
2022/03/01 12:17:46;;;;;;;19.33;13.23;;;9.30;90.90;;;;;;5126727;28;20121;-65
2022/03/01 12:20:17;;;;;;;22.10;13.35;;;9.30;91.10;;;;;;5128502;28;20134;-65
2022/03/01 12:23:02;;;;;;;18.38;12.57;;;9.30;91.30;;;;;;5127061;28;20051;-65
2022/03/01 12:25:32;;;;;;;18.10;12.55;;;9.30;91.60;;;;;;5139697;27;20058;-66
2022/03/01 12:28:01;;;;;;;19.42;13.40;;;9.30;91.80;;;;;;5122742;28;20380;-65
2022/03/01 12:30:27;;;;;;;20.58;12.98;;;9.20;92.20;;;;;;5112151;28;20146;-65
2022/03/01 12:32:55;;;;;;;19.13;12.55;;;9.20;92.50;;;;;;5110488;28;20114;-65
2022/03/01 12:35:22;;;;;;;21.65;12.85;;;9.20;92.50;;;;;;5091382;28;20055;-66
2022/03/01 12:37:49;;;;;;;20.58;13.30;;;9.70;92.90;;;;;;5127714;27;20054;-65